Time;durP1;ratioP1;P1;durP2;ratioP2;P2;SDS_P1;SDS_P2;PMS_P1;PMS_P2;Temp;Humidity;BMP_temperature;BMP_pressure;BME280_temperature;BME280_humidity;BME280_pressure;Samples;Min_cycle;Max_cycle;Signal;HPM_P1;HPM_P2
2021/11/13 00:01:43;;;;;;;14.70;3.50;;;;;;;;;;5010781;28;20069;-62
2021/11/13 00:04:13;;;;;;;13.50;3.55;;;;;;;;;;5008043;28;20101;-62
2021/11/13 00:06:44;;;;;;;14.85;3.78;;;;;;;;;;5012918;28;20042;-62
2021/11/13 00:09:14;;;;;;;12.25;3.60;;;;;;;;;;4978381;28;20053;-62
2021/11/13 00:11:45;;;;;;;13.02;3.85;;;;;;;;;;5029942;28;20444;-62
2021/11/13 00:14:17;;;;;;;13.40;3.80;;;;;;;;;;5029942;28;20064;-62
2021/11/13 00:16:48;;;;;;;14.50;3.58;;;;;;;;;;5027291;28;20054;-62
2021/11/13 00:19:18;;;;;;;12.45;3.80;;;;;;;;;;5012232;28;20045;-62
2021/11/13 00:21:49;;;;;;;11.57;3.38;;;;;;;;;;5021675;28;20053;-62
2021/11/13 00:24:19;;;;;;;10.40;3.13;;;;;;;;;;5046223;28;20045;-62
2021/11/13 00:26:51;;;;;;;10.68;3.55;;;;;;;;;;5035145;28;20052;-62
2021/11/13 00:29:22;;;;;;;11.30;3.10;;;;;;;;;;5011442;28;20052;-61
2021/11/13 00:31:54;;;;;;;11.95;3.53;;;;;;;;;;5019411;28;20437;-61
2021/11/13 00:34:25;;;;;;;15.48;3.72;;;;;;;;;;5012013;28;20079;-62
2021/11/13 00:36:55;;;;;;;11.30;3.50;;;;;;;;;;5030653;28;20053;-62
2021/11/13 00:39:26;;;;;;;15.98;3.42;;;;;;;;;;5036181;28;20056;-62
2021/11/13 00:41:58;;;;;;;12.27;2.83;;;;;;;;;;5029723;28;20054;-62
2021/11/13 00:44:28;;;;;;;11.63;3.08;;;;;;;;;;4974093;28;20042;-62
2021/11/13 00:46:58;;;;;;;11.68;3.00;;;;;;;;;;4990438;28;20062;-62
2021/11/13 00:49:29;;;;;;;11.77;3.05;;;;;;;;;;4987835;28;20061;-62
2021/11/13 00:52:01;;;;;;;13.10;2.92;;;;;;;;;;4942206;28;20065;-62
2021/11/13 00:54:33;;;;;;;9.27;2.53;;;;;;;;;;4990289;28;20065;-62
2021/11/13 00:57:07;;;;;;;7.25;2.50;;;;;;;;;;4951406;28;20058;-62
2021/11/13 00:59:38;;;;;;;10.88;3.33;;;;;;;;;;4936321;28;20063;-62
2021/11/13 01:02:09;;;;;;;8.60;2.97;;;;;;;;;;4951724;28;20070;-62
2021/11/13 01:04:40;;;;;;;9.38;2.97;;;;;;;;;;4932472;29;20055;-62
2021/11/13 01:07:13;;;;;;;11.18;2.72;;;;;;;;;;4955287;28;20135;-62
2021/11/13 01:09:43;;;;;;;7.93;2.67;;;;;;;;;;4970951;28;20422;-62
2021/11/13 01:12:14;;;;;;;9.35;3.05;;;;;;;;;;4971003;28;20054;-62
2021/11/13 01:14:45;;;;;;;9.77;2.50;;;;;;;;;;4951267;29;20059;-62
2021/11/13 01:17:16;;;;;;;6.43;2.60;;;;;;;;;;4932241;29;20060;-62
2021/11/13 01:19:47;;;;;;;6.85;2.33;;;;;;;;;;4932091;29;20546;-61
2021/11/13 01:22:18;;;;;;;6.65;2.35;;;;;;;;;;4943339;29;20063;-62
2021/11/13 01:24:49;;;;;;;9.63;2.60;;;;;;;;;;4951282;29;20052;-62
2021/11/13 01:27:20;;;;;;;8.13;2.67;;;;;;;;;;4962786;28;20059;-62
2021/11/13 01:29:50;;;;;;;6.75;2.45;;;;;;;;;;4934954;29;20043;-63
2021/11/13 01:32:25;;;;;;;7.47;2.90;;;;;;;;;;4951023;28;20059;-62
2021/11/13 01:34:56;;;;;;;4.25;2.33;;;;;;;;;;4963062;28;20133;-62
2021/11/13 01:37:26;;;;;;;5.55;2.55;;;;;;;;;;4970612;28;20050;-63
2021/11/13 01:39:56;;;;;;;6.75;2.63;;;;;;;;;;4970580;28;20059;-62
2021/11/13 01:42:33;;;;;;;7.18;2.28;;;;;;;;;;4954039;28;20039;-62
2021/11/13 01:45:08;;;;;;;7.55;2.42;;;;;;;;;;4938192;28;20058;-62
2021/11/13 01:47:40;;;;;;;5.22;2.42;;;;;;;;;;4970619;28;20071;-62
2021/11/13 01:50:25;;;;;;;6.85;2.50;;;;;;;;;;4905274;29;20059;-63
2021/11/13 01:52:56;;;;;;;5.45;2.83;;;;;;;;;;4922971;29;20384;-62
2021/11/13 01:55:29;;;;;;;7.30;4.28;;;;;;;;;;4952685;28;20442;-62
2021/11/13 01:58:01;;;;;;;6.70;2.45;;;;;;;;;;4941888;28;20070;-62
2021/11/13 02:00:34;;;;;;;8.55;2.80;;;;;;;;;;4974072;28;20074;-63
2021/11/13 02:03:06;;;;;;;8.38;2.55;;;;;;;;;;4987964;28;20046;-62
2021/11/13 02:05:36;;;;;;;6.40;2.13;;;;;;;;;;5013039;28;20397;-62
2021/11/13 02:08:07;;;;;;;9.40;2.60;;;;;;;;;;4993043;28;20410;-62
2021/11/13 02:10:37;;;;;;;8.98;2.58;;;;;;;;;;4993415;28;20058;-62
2021/11/13 02:13:08;;;;;;;8.13;2.60;;;;;;;;;;4993188;28;20066;-62
2021/11/13 02:15:39;;;;;;;9.65;2.60;;;;;;;;;;4993243;28;20062;-62
2021/11/13 02:18:10;;;;;;;6.97;2.40;;;;;;;;;;4973410;28;20043;-62
2021/11/13 02:20:43;;;;;;;4.57;2.17;;;;;;;;;;4973549;28;20054;-62
2021/11/13 02:23:20;;;;;;;9.05;2.40;;;;;;;;;;4973459;28;20051;-63
2021/11/13 02:25:52;;;;;;;6.97;2.58;;;;;;;;;;4973576;28;20051;-63
2021/11/13 02:28:25;;;;;;;7.43;2.45;;;;;;;;;;4973622;28;21162;-62
2021/11/13 02:30:56;;;;;;;;;;;;;;;;;;4926211;28;20062;-63
2021/11/13 02:33:27;;;;;;;5.68;2.22;;;;;;;;;;4973322;28;19922;-63
2021/11/13 02:35:59;;;;;;;9.50;2.38;;;;;;;;;;4960215;28;20057;-63
2021/11/13 02:38:35;;;;;;;5.20;2.63;;;;;;;;;;4990722;28;20394;-63
2021/11/13 02:41:09;;;;;;;9.10;3.30;;;;;;;;;;4953614;29;20106;-63
2021/11/13 02:43:40;;;;;;;4.57;2.25;;;;;;;;;;4953818;29;20062;-63
2021/11/13 02:46:14;;;;;;;3.95;2.10;;;;;;;;;;4938252;29;20055;-63
2021/11/13 02:48:45;;;;;;;5.57;2.42;;;;;;;;;;4953807;29;20055;-63
2021/11/13 02:51:15;;;;;;;7.05;2.40;;;;;;;;;;4954032;29;20066;-62
2021/11/13 02:53:52;;;;;;;7.03;2.60;;;;;;;;;;4953468;29;20059;-63
2021/11/13 02:56:22;;;;;;;6.15;2.20;;;;;;;;;;4951579;28;20058;-63
2021/11/13 02:58:53;;;;;;;6.10;2.50;;;;;;;;;;4972967;28;20136;-63
2021/11/13 03:01:26;;;;;;;8.23;2.25;;;;;;;;;;4972810;28;20063;-63
2021/11/13 03:03:57;;;;;;;6.85;2.10;;;;;;;;;;4940448;28;20054;-62
2021/11/13 03:06:29;;;;;;;10.68;3.33;;;;;;;;;;4988632;28;20055;-63
2021/11/13 03:09:00;;;;;;;5.20;2.20;;;;;;;;;;4953176;29;20059;-63
2021/11/13 03:11:32;;;;;;;7.40;2.53;;;;;;;;;;4953491;29;20059;-63
2021/11/13 03:14:03;;;;;;;6.22;2.38;;;;;;;;;;4979974;28;20410;-63
2021/11/13 03:16:33;;;;;;;5.28;2.15;;;;;;;;;;4992046;28;20050;-63
2021/11/13 03:19:05;;;;;;;7.53;2.20;;;;;;;;;;5000627;28;20050;-63
2021/11/13 03:21:35;;;;;;;5.53;2.75;;;;;;;;;;5031408;28;20417;-63
2021/11/13 03:24:06;;;;;;;4.40;1.80;;;;;;;;;;5031110;28;20512;-63
2021/11/13 03:26:38;;;;;;;4.53;2.40;;;;;;;;;;5031286;28;20054;-62
2021/11/13 03:29:19;;;;;;;4.30;2.05;;;;;;;;;;5043523;28;20059;-63
2021/11/13 03:31:51;;;;;;;4.55;2.03;;;;;;;;;;5036241;28;20049;-62
2021/11/13 03:34:21;;;;;;;8.50;2.40;;;;;;;;;;5017825;28;20057;-62
2021/11/13 03:36:54;;;;;;;6.90;2.72;;;;;;;;;;4995372;28;20046;-63
2021/11/13 03:39:26;;;;;;;;;;;;;;;;;;4975271;28;20493;-63
2021/11/13 03:41:58;;;;;;;6.05;2.22;;;;;;;;;;4991661;28;19922;-63
2021/11/13 03:44:28;;;;;;;3.90;1.95;;;;;;;;;;5010580;28;20161;-63
2021/11/13 03:47:00;;;;;;;4.25;1.95;;;;;;;;;;5023377;28;20579;-63
2021/11/13 03:49:31;;;;;;;7.53;2.20;;;;;;;;;;5030760;28;20061;-63
2021/11/13 03:52:01;;;;;;;5.03;2.20;;;;;;;;;;5030614;28;20049;-63
2021/11/13 03:54:33;;;;;;;3.65;2.03;;;;;;;;;;5030562;28;20061;-62
2021/11/13 03:57:05;;;;;;;5.13;2.10;;;;;;;;;;5030858;28;20064;-62
2021/11/13 03:59:35;;;;;;;4.65;2.00;;;;;;;;;;5030421;28;20413;-63
2021/11/13 04:02:08;;;;;;;4.13;1.70;;;;;;;;;;5030491;28;20061;-63
2021/11/13 04:04:41;;;;;;;6.07;2.70;;;;;;;;;;4981331;28;20548;-63
2021/11/13 04:07:12;;;;;;;5.90;2.17;;;;;;;;;;5030434;28;20076;-63
2021/11/13 04:09:43;;;;;;;5.57;1.90;;;;;;;;;;5030199;28;20079;-63
2021/11/13 04:12:14;;;;;;;4.72;1.90;;;;;;;;;;5029972;28;20068;-63
2021/11/13 04:14:45;;;;;;;6.32;2.05;;;;;;;;;;5030210;28;20053;-63
2021/11/13 04:17:16;;;;;;;5.97;2.05;;;;;;;;;;5033318;28;20056;-63
2021/11/13 04:19:47;;;;;;;3.63;1.80;;;;;;;;;;5029929;28;20397;-63
2021/11/13 04:22:17;;;;;;;2.80;1.60;;;;;;;;;;4997358;28;20049;-62
2021/11/13 04:24:48;;;;;;;2.90;1.65;;;;;;;;;;5013632;28;20054;-63
2021/11/13 04:27:18;;;;;;;2.88;1.63;;;;;;;;;;5030136;28;20045;-62
2021/11/13 04:29:49;;;;;;;3.40;1.50;;;;;;;;;;5029847;28;20101;-62
2021/11/13 04:32:20;;;;;;;5.45;1.60;;;;;;;;;;5028043;28;20072;-63
2021/11/13 04:35:13;;;;;;;3.42;1.70;;;;;;;;;;5013931;28;20556;-63
2021/11/13 04:37:45;;;;;;;3.50;1.58;;;;;;;;;;5043923;28;20064;-62
2021/11/13 04:40:17;;;;;;;3.15;1.40;;;;;;;;;;5049815;28;20049;-63
2021/11/13 04:42:48;;;;;;;2.65;1.50;;;;;;;;;;5049844;28;20052;-62
2021/11/13 04:45:19;;;;;;;3.80;1.70;;;;;;;;;;5009734;28;20058;-62
2021/11/13 04:47:49;;;;;;;4.32;1.85;;;;;;;;;;5009984;28;20062;-63
2021/11/13 04:50:24;;;;;;;6.53;1.85;;;;;;;;;;5009913;28;20058;-62
2021/11/13 04:52:55;;;;;;;4.70;1.58;;;;;;;;;;5010259;28;20042;-63
2021/11/13 04:55:25;;;;;;;4.07;1.45;;;;;;;;;;5024172;28;20154;-63
2021/11/13 04:57:56;;;;;;;3.90;1.33;;;;;;;;;;5043956;28;20061;-63
2021/11/13 05:00:46;;;;;;;5.95;1.52;;;;;;;;;;5029645;28;20054;-62
2021/11/13 05:03:17;;;;;;;2.17;1.38;;;;;;;;;;4989585;28;20069;-63
2021/11/13 05:05:47;;;;;;;3.92;1.52;;;;;;;;;;4974202;28;20065;-62
2021/11/13 05:08:17;;;;;;;3.47;1.25;;;;;;;;;;4990096;28;20058;-63
2021/11/13 05:10:50;;;;;;;3.15;1.70;;;;;;;;;;4990160;28;20061;-63
2021/11/13 05:13:20;;;;;;;4.43;1.30;;;;;;;;;;4957838;28;20078;-62
2021/11/13 05:15:51;;;;;;;3.17;1.48;;;;;;;;;;4990321;28;20058;-62
2021/11/13 05:18:22;;;;;;;3.65;1.40;;;;;;;;;;4989863;28;20061;-63
2021/11/13 05:20:53;;;;;;;4.70;2.10;;;;;;;;;;4990084;28;20418;-62
2021/11/13 05:23:24;;;;;;;3.40;1.42;;;;;;;;;;5017292;28;20185;-62
2021/11/13 05:25:55;;;;;;;2.50;1.20;;;;;;;;;;5032712;28;20080;-62
2021/11/13 05:28:25;;;;;;;3.95;1.23;;;;;;;;;;5033389;28;20053;-62
2021/11/13 05:30:56;;;;;;;4.35;1.65;;;;;;;;;;5000476;28;20053;-62
2021/11/13 05:33:27;;;;;;;3.88;1.60;;;;;;;;;;5033222;28;20057;-62
2021/11/13 05:35:58;;;;;;;2.08;1.30;;;;;;;;;;5033412;28;20057;-62
2021/11/13 05:38:28;;;;;;;4.47;1.52;;;;;;;;;;5043718;28;20056;-62
2021/11/13 05:40:58;;;;;;;3.50;1.40;;;;;;;;;;5014581;28;20045;-62
2021/11/13 05:43:29;;;;;;;6.13;1.55;;;;;;;;;;5075483;28;20436;-62
2021/11/13 05:46:01;;;;;;;1.92;1.10;;;;;;;;;;5057097;28;20443;-62
2021/11/13 05:48:31;;;;;;;2.97;1.25;;;;;;;;;;5075202;28;20040;-62
2021/11/13 05:51:01;;;;;;;2.70;1.10;;;;;;;;;;5075262;28;20052;-62
2021/11/13 05:53:31;;;;;;;4.53;1.90;;;;;;;;;;5075090;28;20434;-62
2021/11/13 05:56:02;;;;;;;5.15;1.35;;;;;;;;;;5075093;28;20052;-62
2021/11/13 05:58:44;;;;;;;3.53;1.00;;;;;;;;;;5055585;28;20052;-62
2021/11/13 06:01:14;;;;;;;1.98;1.05;;;;;;;;;;5072413;28;20055;-62
2021/11/13 06:03:45;;;;;;;3.58;1.42;;;;;;;;;;5072449;28;20056;-63
2021/11/13 06:06:16;;;;;;;2.90;1.17;;;;;;;;;;5022957;28;20057;-63
2021/11/13 06:08:47;;;;;;;1.92;1.20;;;;;;;;;;5072670;28;20412;-62
2021/11/13 06:11:17;;;;;;;3.38;1.10;;;;;;;;;;5019078;28;20044;-62
2021/11/13 06:13:47;;;;;;;2.28;1.00;;;;;;;;;;5052468;28;20065;-62
2021/11/13 06:16:18;;;;;;;3.35;1.10;;;;;;;;;;5052542;28;20057;-62
2021/11/13 06:18:49;;;;;;;2.88;1.08;;;;;;;;;;5032352;28;20054;-62
2021/11/13 06:21:19;;;;;;;1.95;0.90;;;;;;;;;;4999611;28;20061;-62
2021/11/13 06:24:10;;;;;;;4.18;1.33;;;;;;;;;;4992748;28;20061;-62
2021/11/13 06:26:40;;;;;;;1.77;1.00;;;;;;;;;;4973090;28;20051;-62
2021/11/13 06:29:12;;;;;;;1.80;0.90;;;;;;;;;;4973326;28;20503;-63
2021/11/13 06:31:43;;;;;;;2.78;1.27;;;;;;;;;;4953800;29;20505;-62
2021/11/13 06:34:13;;;;;;;4.78;0.98;;;;;;;;;;4907455;29;20424;-62
2021/11/13 06:36:43;;;;;;;3.63;1.30;;;;;;;;;;4921777;29;20059;-62
2021/11/13 06:39:16;;;;;;;2.13;1.02;;;;;;;;;;4953947;29;20059;-62
2021/11/13 06:41:48;;;;;;;1.75;0.98;;;;;;;;;;4953813;29;20542;-62
2021/11/13 06:44:18;;;;;;;2.70;1.20;;;;;;;;;;4906114;29;20059;-63
2021/11/13 06:46:48;;;;;;;2.08;1.10;;;;;;;;;;4953664;29;20519;-62
2021/11/13 06:49:18;;;;;;;2.47;0.90;;;;;;;;;;4966369;28;20081;-62
2021/11/13 06:51:53;;;;;;;1.85;0.77;;;;;;;;;;4956825;28;20058;-62
2021/11/13 06:54:26;;;;;;;2.40;1.15;;;;;;;;;;4909772;28;20059;-62
2021/11/13 06:56:56;;;;;;;2.15;0.88;;;;;;;;;;4953979;28;20065;-62
2021/11/13 06:59:26;;;;;;;2.83;0.85;;;;;;;;;;4912942;28;20054;-63
2021/11/13 07:01:57;;;;;;;1.60;0.90;;;;;;;;;;5003184;28;20058;-63
2021/11/13 07:04:27;;;;;;;3.75;1.20;;;;;;;;;;4979258;28;20053;-62
2021/11/13 07:06:58;;;;;;;2.70;1.13;;;;;;;;;;4972601;28;20054;-63
2021/11/13 07:09:28;;;;;;;1.88;0.80;;;;;;;;;;4983354;28;20054;-62
2021/11/13 07:12:05;;;;;;;1.90;0.88;;;;;;;;;;4972501;28;20069;-62
2021/11/13 07:14:37;;;;;;;2.78;0.80;;;;;;;;;;4956539;28;20167;-62
2021/11/13 07:17:08;;;;;;;1.98;1.00;;;;;;;;;;4972631;28;20065;-63
2021/11/13 07:19:39;;;;;;;3.67;1.23;;;;;;;;;;5008304;28;20056;-62
2021/11/13 07:22:10;;;;;;;1.55;0.63;;;;;;;;;;5015365;28;20121;-62
2021/11/13 07:24:43;;;;;;;1.90;0.75;;;;;;;;;;4967270;28;20057;-63
2021/11/13 07:27:16;;;;;;;1.63;0.77;;;;;;;;;;5031386;28;20046;-62
2021/11/13 07:29:58;;;;;;;3.22;0.98;;;;;;;;;;4998441;28;20053;-62
2021/11/13 07:32:29;;;;;;;3.40;0.88;;;;;;;;;;4991625;28;20046;-63
2021/11/13 07:35:00;;;;;;;2.15;0.90;;;;;;;;;;4972040;28;20063;-63
2021/11/13 07:37:31;;;;;;;2.75;0.90;;;;;;;;;;4970051;28;20058;-62
2021/11/13 07:40:02;;;;;;;2.90;1.02;;;;;;;;;;4949029;28;20052;-62
2021/11/13 07:42:32;;;;;;;3.33;0.88;;;;;;;;;;4933854;29;20067;-63
2021/11/13 07:45:06;;;;;;;3.53;1.00;;;;;;;;;;4930434;28;20518;-62
2021/11/13 07:47:41;;;;;;;1.27;0.63;;;;;;;;;;4952008;28;20426;-62
2021/11/13 07:50:13;;;;;;;2.42;0.70;;;;;;;;;;4950151;28;20074;-62
2021/11/13 07:52:44;;;;;;;2.70;0.70;;;;;;;;;;4991188;28;20050;-62
2021/11/13 07:55:17;;;;;;;2.50;0.80;;;;;;;;;;4991271;28;20069;-62
2021/11/13 07:57:48;;;;;;;1.88;1.30;;;;;;;;;;4991675;28;20094;-62
2021/11/13 08:00:20;;;;;;;2.28;0.73;;;;;;;;;;4991214;28;20069;-62
2021/11/13 08:02:50;;;;;;;2.10;1.20;;;;;;;;;;4990957;28;20058;-62
2021/11/13 08:05:20;;;;;;;1.92;0.85;;;;;;;;;;4942596;28;20054;-62
2021/11/13 08:07:51;;;;;;;4.38;1.15;;;;;;;;;;4990983;28;20046;-62
2021/11/13 08:10:22;;;;;;;2.83;0.82;;;;;;;;;;4932431;28;20458;-62
2021/11/13 08:12:52;;;;;;;1.73;1.27;;;;;;;;;;4983579;28;20058;-62
2021/11/13 08:15:22;;;;;;;2.50;1.15;;;;;;;;;;4990889;28;20057;-62
2021/11/13 08:17:52;;;;;;;1.90;0.80;;;;;;;;;;5014183;28;20497;-62
2021/11/13 08:20:23;;;;;;;1.65;0.70;;;;;;;;;;5030297;28;20049;-62
2021/11/13 08:22:53;;;;;;;1.85;0.70;;;;;;;;;;5030018;28;20158;-62
2021/11/13 08:25:24;;;;;;;1.88;0.85;;;;;;;;;;5030140;28;20045;-62
2021/11/13 08:27:54;;;;;;;1.77;0.70;;;;;;;;;;4990477;28;20046;-62
2021/11/13 08:30:28;;;;;;;4.03;0.95;;;;;;;;;;4974723;28;20422;-63
2021/11/13 08:33:00;;;;;;;2.50;1.00;;;;;;;;;;4990974;28;20058;-62
2021/11/13 08:35:31;;;;;;;2.38;0.70;;;;;;;;;;4990222;28;20219;-62
2021/11/13 08:38:01;;;;;;;3.60;0.70;;;;;;;;;;4961493;28;20057;-63
2021/11/13 08:40:32;;;;;;;1.92;1.00;;;;;;;;;;5010054;28;20054;-62
2021/11/13 08:43:03;;;;;;;1.17;0.82;;;;;;;;;;5010102;28;20151;-62
2021/11/13 08:45:35;;;;;;;3.92;0.80;;;;;;;;;;5010020;28;20057;-62
2021/11/13 08:48:06;;;;;;;2.65;1.05;;;;;;;;;;5032418;28;20053;-62
2021/11/13 08:50:36;;;;;;;1.50;0.65;;;;;;;;;;5009780;28;20482;-62
2021/11/13 08:53:08;;;;;;;3.55;0.60;;;;;;;;;;4990086;28;20058;-62
2021/11/13 08:55:39;;;;;;;2.63;0.70;;;;;;;;;;4990344;28;20525;-62
2021/11/13 08:58:10;;;;;;;;;;;;;;;;;;4974645;28;20071;-62
2021/11/13 09:00:53;;;;;;;1.77;0.80;;;;;;;;;;4958091;28;19922;-62
2021/11/13 09:03:37;;;;;;;2.67;0.70;;;;;;;;;;4990107;28;20062;-62
2021/11/13 09:06:11;;;;;;;1.92;1.02;;;;;;;;;;4949793;28;20121;-62
2021/11/13 09:08:44;;;;;;;0.93;0.60;;;;;;;;;;4951180;29;20561;-62
2021/11/13 09:11:32;;;;;;;1.95;0.60;;;;;;;;;;4951385;29;20523;-62
2021/11/13 09:14:06;;;;;;;1.25;0.50;;;;;;;;;;4968173;28;20059;-62
2021/11/13 09:16:40;;;;;;;2.55;0.90;;;;;;;;;;4955136;28;20043;-62
2021/11/13 09:19:11;;;;;;;1.63;0.65;;;;;;;;;;4970683;28;20061;-62
2021/11/13 09:21:42;;;;;;;1.85;0.77;;;;;;;;;;4970769;28;20051;-62
2021/11/13 09:24:14;;;;;;;4.28;0.98;;;;;;;;;;4970475;28;20058;-62
2021/11/13 09:26:48;;;;;;;1.80;0.70;;;;;;;;;;4954740;28;20058;-62
2021/11/13 09:29:18;;;;;;;3.25;0.73;;;;;;;;;;4952904;28;20050;-62
2021/11/13 09:31:49;;;;;;;1.70;0.80;;;;;;;;;;4952327;28;20066;-62
2021/11/13 09:34:21;;;;;;;2.13;0.73;;;;;;;;;;4951184;29;20066;-62
2021/11/13 09:36:53;;;;;;;2.33;0.85;;;;;;;;;;4935027;29;20054;-63
2021/11/13 09:39:24;;;;;;;2.28;0.63;;;;;;;;;;4951349;29;20426;-63
2021/11/13 09:42:14;;;;;;;2.60;0.80;;;;;;;;;;4931906;29;20051;-63
2021/11/13 09:44:45;;;;;;;1.67;0.70;;;;;;;;;;4949455;29;20059;-62
2021/11/13 09:47:17;;;;;;;2.63;0.70;;;;;;;;;;4988904;28;20054;-62
2021/11/13 09:49:49;;;;;;;3.40;1.00;;;;;;;;;;5009313;28;20494;-63
2021/11/13 09:52:19;;;;;;;2.15;0.60;;;;;;;;;;4961155;28;20065;-62
2021/11/13 09:54:50;;;;;;;3.28;0.90;;;;;;;;;;5009355;28;20151;-61
2021/11/13 09:57:23;;;;;;;7.55;1.02;;;;;;;;;;5009456;28;20058;-62
2021/11/13 09:59:53;;;;;;;3.83;0.88;;;;;;;;;;4941772;28;20058;-62
2021/11/13 10:02:24;;;;;;;2.92;0.68;;;;;;;;;;4989565;28;20130;-62
2021/11/13 10:04:54;;;;;;;6.13;0.80;;;;;;;;;;4941597;28;20560;-62
2021/11/13 10:07:25;;;;;;;2.53;0.65;;;;;;;;;;4989747;28;20414;-63
2021/11/13 10:09:56;;;;;;;2.67;0.80;;;;;;;;;;5003378;28;20498;-60
2021/11/13 10:12:40;;;;;;;2.38;1.00;;;;;;;;;;5012868;28;20561;-62
2021/11/13 10:15:28;;;;;;;11.88;1.75;;;;;;;;;;5012685;28;20518;-62
2021/11/13 10:18:19;;;;;;;20.45;2.35;;;;;;;;;;5012511;28;20058;-61
2021/11/13 10:20:58;;;;;;;12.40;1.58;;;;;;;;;;5012060;28;20045;-62
2021/11/13 10:23:28;;;;;;;6.47;1.10;;;;;;;;;;5032294;28;20058;-61
2021/11/13 10:26:08;;;;;;;6.15;1.00;;;;;;;;;;5012328;28;20061;-61
2021/11/13 10:29:04;;;;;;;9.60;1.30;;;;;;;;;;4979913;28;20049;-62
2021/11/13 10:31:58;;;;;;;18.42;2.00;;;;;;;;;;4973034;28;21010;-62
2021/11/13 10:34:43;;;;;;;22.73;2.53;;;;;;;;;;4973571;28;20498;-62
2021/11/13 10:37:28;;;;;;;22.58;2.78;;;;;;;;;;4941858;29;20043;-63
2021/11/13 10:40:02;;;;;;;31.73;3.20;;;;;;;;;;4954032;29;20059;-61
2021/11/13 10:42:32;;;;;;;28.88;2.85;;;;;;;;;;4922391;29;20192;-63
2021/11/13 10:45:03;;;;;;;39.45;4.10;;;;;;;;;;4934543;29;20052;-63
2021/11/13 10:47:39;;;;;;;30.05;3.17;;;;;;;;;;4934949;29;20075;-63
2021/11/13 10:50:18;;;;;;;48.28;4.43;;;;;;;;;;4896449;29;20421;-63
2021/11/13 11:05:18;;;;;;;11.85;1.60;;;;;;;;;;5089518;27;20430;-71
2021/11/13 11:07:49;;;;;;;73.15;7.43;;;;;;;;;;5089504;28;20348;-67
2021/11/13 11:10:21;;;;;;;12.80;1.48;;;;;;;;;;5088340;28;20550;-66
2021/11/13 11:12:51;;;;;;;1.55;1.05;;;;;;;;;;5089283;28;20071;-67
2021/11/13 11:15:22;;;;;;;8.73;1.77;;;;;;;;;;5088208;28;20055;-65
2021/11/13 11:17:57;;;;;;;2.05;1.17;;;;;;;;;;5088101;28;20059;-67
2021/11/13 11:20:28;;;;;;;1.95;0.80;;;;;;;;;;5089085;28;20036;-66
2021/11/13 11:22:58;;;;;;;2.63;1.10;;;;;;;;;;5089066;28;20044;-66
2021/11/13 11:25:29;;;;;;;3.08;1.45;;;;;;;;;;5089222;28;20515;-66
2021/11/13 11:28:03;;;;;;;1.75;0.80;;;;;;;;;;5086751;28;20052;-66
2021/11/13 11:30:48;;;;;;;4.90;1.27;;;;;;;;;;5086636;28;20063;-66
2021/11/13 11:33:39;;;;;;;1.67;0.93;;;;;;;;;;5032892;28;20055;-65
2021/11/13 11:36:31;;;;;;;3.83;1.60;;;;;;;;;;5000978;28;20124;-66
2021/11/13 11:39:02;;;;;;;3.03;1.00;;;;;;;;;;5065778;28;20045;-66
2021/11/13 11:41:33;;;;;;;1.73;0.90;;;;;;;;;;5066093;28;20041;-67
2021/11/13 11:44:03;;;;;;;3.17;1.15;;;;;;;;;;5028615;28;20132;-66
2021/11/13 11:46:34;;;;;;;4.93;1.33;;;;;;;;;;5046265;28;20057;-66
2021/11/13 11:49:06;;;;;;;2.63;1.05;;;;;;;;;;5045979;28;20064;-66
2021/11/13 11:51:36;;;;;;;1.98;1.05;;;;;;;;;;5013327;28;20127;-67
2021/11/13 11:54:11;;;;;;;1.65;1.15;;;;;;;;;;5025729;28;20046;-66
2021/11/13 11:56:42;;;;;;;1.75;0.95;;;;;;;;;;5026206;28;20054;-66
2021/11/13 11:59:15;;;;;;;1.30;0.80;;;;;;;;;;5026038;28;20405;-66
2021/11/13 12:01:45;;;;;;;5.85;1.33;;;;;;;;;;5009364;28;20125;-66
2021/11/13 12:04:24;;;;;;;2.30;0.90;;;;;;;;;;5025363;28;20057;-66
2021/11/13 12:06:57;;;;;;;6.97;1.35;;;;;;;;;;4986415;28;20057;-66
2021/11/13 12:09:28;;;;;;;3.00;1.05;;;;;;;;;;4962902;28;20063;-66
2021/11/13 12:12:19;;;;;;;3.47;1.23;;;;;;;;;;4965552;28;20075;-66
2021/11/13 12:14:49;;;;;;;4.43;1.42;;;;;;;;;;4925589;29;20071;-66
2021/11/13 12:17:23;;;;;;;3.05;0.85;;;;;;;;;;4916243;29;20420;-66
2021/11/13 12:20:10;;;;;;;2.30;0.85;;;;;;;;;;4884008;29;20063;-66
2021/11/13 12:22:51;;;;;;;6.45;1.00;;;;;;;;;;4934849;29;20097;-65
2021/11/13 12:25:30;;;;;;;1.95;0.80;;;;;;;;;;4918976;29;20496;-66
2021/11/13 12:28:11;;;;;;;2.58;0.95;;;;;;;;;;4915546;29;20051;-65
2021/11/13 12:30:49;;;;;;;3.05;0.93;;;;;;;;;;4916448;29;20056;-65
2021/11/13 12:33:25;;;;;;;3.00;0.82;;;;;;;;;;4888124;29;20054;-66
2021/11/13 12:36:02;;;;;;;4.07;0.90;;;;;;;;;;4934938;29;20064;-65
2021/11/13 12:38:44;;;;;;;3.33;1.00;;;;;;;;;;4911417;29;20057;-67
2021/11/13 12:41:40;;;;;;;1.40;0.93;;;;;;;;;;4877562;29;20052;-66
2021/11/13 12:44:32;;;;;;;2.85;0.90;;;;;;;;;;4877981;29;20061;-66
2021/11/13 12:47:05;;;;;;;7.88;1.77;;;;;;;;;;4871751;29;20422;-66
2021/11/13 12:49:47;;;;;;;3.28;0.70;;;;;;;;;;4877590;29;20057;-66
2021/11/13 12:52:32;;;;;;;5.30;1.02;;;;;;;;;;4881187;29;20512;-66
2021/11/13 12:55:13;;;;;;;2.55;1.10;;;;;;;;;;4896574;29;20061;-66
2021/11/13 12:57:46;;;;;;;2.53;1.17;;;;;;;;;;4933991;29;20055;-66
2021/11/13 13:00:25;;;;;;;3.00;1.10;;;;;;;;;;4933898;29;20534;-66
2021/11/13 13:03:14;;;;;;;2.28;0.95;;;;;;;;;;4917851;29;20540;-66
2021/11/13 13:06:24;;;;;;;1.92;1.15;;;;;;;;;;4933951;29;20048;-65
2021/11/13 13:09:04;;;;;;;2.53;1.00;;;;;;;;;;4934077;29;20063;-66
2021/11/13 13:11:34;;;;;;;2.47;0.85;;;;;;;;;;4914940;29;20693;-66
2021/11/13 13:14:07;;;;;;;4.60;1.00;;;;;;;;;;4915134;29;20060;-65
2021/11/13 13:16:38;;;;;;;5.88;0.93;;;;;;;;;;4902838;29;20056;-64
2021/11/13 13:19:08;;;;;;;4.35;1.40;;;;;;;;;;4925571;29;20060;-65
2021/11/13 13:21:41;;;;;;;5.82;1.30;;;;;;;;;;4914405;29;20060;-65
2021/11/13 13:24:15;;;;;;;2.90;1.20;;;;;;;;;;4895563;29;20060;-65
2021/11/13 13:26:47;;;;;;;2.65;1.02;;;;;;;;;;4894509;29;20052;-66
2021/11/13 13:29:21;;;;;;;10.75;3.10;;;;;;;;;;4891742;29;20068;-64
2021/11/13 13:31:56;;;;;;;2.00;1.30;;;;;;;;;;4877405;29;20057;-66
2021/11/13 13:34:29;;;;;;;3.20;1.15;;;;;;;;;;4872526;29;20057;-65
2021/11/13 13:37:10;;;;;;;5.57;1.50;;;;;;;;;;4814852;29;20076;-64
2021/11/13 13:39:40;;;;;;;4.57;1.33;;;;;;;;;;4861889;29;20528;-65
2021/11/13 13:42:11;;;;;;;6.20;1.48;;;;;;;;;;4895515;29;20060;-65
2021/11/13 13:44:43;;;;;;;3.25;0.93;;;;;;;;;;4882721;29;20052;-65
2021/11/13 13:47:14;;;;;;;1.83;1.30;;;;;;;;;;4914289;29;20056;-64
2021/11/13 13:49:45;;;;;;;2.63;0.95;;;;;;;;;;4925298;29;20059;-64
2021/11/13 13:52:20;;;;;;;1.95;0.93;;;;;;;;;;4924414;28;20050;-64
2021/11/13 13:54:52;;;;;;;2.50;0.98;;;;;;;;;;4948676;28;20060;-64
2021/11/13 13:57:23;;;;;;;1.52;1.05;;;;;;;;;;4934238;29;20397;-66
2021/11/13 13:59:58;;;;;;;3.22;1.13;;;;;;;;;;4914136;29;20052;-65
2021/11/13 14:02:41;;;;;;;4.70;1.33;;;;;;;;;;4914254;29;20562;-65
2021/11/13 14:05:27;;;;;;;8.15;1.33;;;;;;;;;;4901531;29;20052;-67
2021/11/13 14:08:06;;;;;;;4.15;1.25;;;;;;;;;;4895257;29;20064;-65
2021/11/13 14:10:45;;;;;;;3.17;1.13;;;;;;;;;;4913639;29;20433;-64
2021/11/13 14:13:18;;;;;;;3.97;1.00;;;;;;;;;;4914018;29;20060;-64
2021/11/13 14:15:59;;;;;;;12.63;5.22;;;;;;;;;;4913639;29;20063;-66
2021/11/13 14:18:46;;;;;;;7.05;1.52;;;;;;;;;;4914901;29;20067;-64
2021/11/13 14:21:23;;;;;;;1.92;1.05;;;;;;;;;;4933820;29;20062;-64
2021/11/13 14:23:54;;;;;;;1.83;1.08;;;;;;;;;;4951972;28;20555;-65
2021/11/13 14:26:25;;;;;;;2.85;0.93;;;;;;;;;;4952045;28;20051;-65
2021/11/13 14:29:01;;;;;;;2.97;1.38;;;;;;;;;;4953410;28;20062;-65
2021/11/13 14:31:35;;;;;;;3.33;1.20;;;;;;;;;;4992222;28;20054;-65
2021/11/13 14:34:12;;;;;;;4.20;1.35;;;;;;;;;;5014515;28;20057;-65
2021/11/13 14:37:05;;;;;;;2.63;0.85;;;;;;;;;;5049848;28;20057;-66
2021/11/13 14:39:41;;;;;;;2.13;1.10;;;;;;;;;;5009717;28;20056;-65
2021/11/13 14:42:22;;;;;;;1.80;1.05;;;;;;;;;;5015194;28;20547;-66
2021/11/13 14:44:58;;;;;;;3.28;1.05;;;;;;;;;;5009759;28;20760;-65
2021/11/13 14:47:39;;;;;;;2.45;1.02;;;;;;;;;;4973596;28;20427;-67
2021/11/13 14:50:16;;;;;;;3.22;1.25;;;;;;;;;;4990176;28;20069;-65
2021/11/13 14:52:51;;;;;;;5.00;1.02;;;;;;;;;;4990295;28;20201;-64
2021/11/13 14:55:28;;;;;;;3.25;1.10;;;;;;;;;;4990127;28;20054;-65
2021/11/13 14:58:00;;;;;;;1.95;1.08;;;;;;;;;;4974158;28;20050;-65
2021/11/13 15:00:50;;;;;;;1.65;1.42;;;;;;;;;;4970634;28;20059;-66
2021/11/13 15:03:28;;;;;;;2.70;1.10;;;;;;;;;;4970289;28;20058;-65
2021/11/13 15:06:04;;;;;;;1.58;0.88;;;;;;;;;;4970309;28;20061;-65
2021/11/13 15:08:39;;;;;;;1.35;0.82;;;;;;;;;;4912909;29;20055;-65
2021/11/13 15:11:15;;;;;;;1.85;1.10;;;;;;;;;;4931815;29;20059;-64
2021/11/13 15:13:52;;;;;;;4.53;1.42;;;;;;;;;;4932634;29;20060;-64
2021/11/13 15:16:26;;;;;;;4.43;1.25;;;;;;;;;;4915542;29;20052;-65
2021/11/13 15:18:59;;;;;;;2.78;1.20;;;;;;;;;;4912944;29;20074;-66
2021/11/13 15:21:30;;;;;;;4.72;1.65;;;;;;;;;;4881194;29;20516;-65
2021/11/13 15:24:22;;;;;;;3.13;1.20;;;;;;;;;;4901028;29;20075;-65
2021/11/13 15:26:56;;;;;;;3.10;0.90;;;;;;;;;;4951166;29;20404;-65
2021/11/13 15:29:27;;;;;;;3.65;1.15;;;;;;;;;;4931600;29;20499;-64
2021/11/13 15:32:01;;;;;;;2.33;1.02;;;;;;;;;;4933640;29;20056;-65
2021/11/13 15:34:35;;;;;;;1.67;1.05;;;;;;;;;;4912886;29;20519;-64